sensor_id;sensor_type;location;lat;lon;timestamp;temperature;humidity
11944;DHT22;6031;50.220;10.122;2023-07-20T00:00:51;17.30;1.00
11944;DHT22;6031;50.220;10.122;2023-07-20T00:03:19;17.30;1.00
11944;DHT22;6031;50.220;10.122;2023-07-20T00:05:48;17.20;1.00
11944;DHT22;6031;50.220;10.122;2023-07-20T00:08:15;17.10;1.00
11944;DHT22;6031;50.220;10.122;2023-07-20T00:10:41;17.00;1.00
11944;DHT22;6031;50.220;10.122;2023-07-20T00:13:07;16.90;50.40
11944;DHT22;6031;50.220;10.122;2023-07-20T00:15:32;17.10;99.90
11944;DHT22;6031;50.220;10.122;2023-07-20T00:17:58;17.10;3.30
11944;DHT22;6031;50.220;10.122;2023-07-20T00:20:24;17.00;25.60
11944;DHT22;6031;50.220;10.122;2023-07-20T00:22:50;17.00;91.50
11944;DHT22;6031;50.220;10.122;2023-07-20T00:25:20;17.00;99.90
11944;DHT22;6031;50.220;10.122;2023-07-20T00:27:46;17.00;99.90
11944;DHT22;6031;50.220;10.122;2023-07-20T00:30:11;17.10;73.80
11944;DHT22;6031;50.220;10.122;2023-07-20T00:32:37;17.10;1.00
11944;DHT22;6031;50.220;10.122;2023-07-20T00:35:03;17.10;24.60
11944;DHT22;6031;50.220;10.122;2023-07-20T00:37:28;17.10;14.70
11944;DHT22;6031;50.220;10.122;2023-07-20T00:39:54;17.00;1.10
11944;DHT22;6031;50.220;10.122;2023-07-20T00:42:20;16.90;1.00
11944;DHT22;6031;50.220;10.122;2023-07-20T00:44:45;16.90;1.00
11944;DHT22;6031;50.220;10.122;2023-07-20T00:47:11;16.70;1.00
11944;DHT22;6031;50.220;10.122;2023-07-20T00:49:37;16.60;1.00
11944;DHT22;6031;50.220;10.122;2023-07-20T00:52:03;16.50;1.00
11944;DHT22;6031;50.220;10.122;2023-07-20T00:54:31;16.40;1.00
11944;DHT22;6031;50.220;10.122;2023-07-20T00:56:58;16.40;1.00
11944;DHT22;6031;50.220;10.122;2023-07-20T00:59:24;16.30;1.00
11944;DHT22;6031;50.220;10.122;2023-07-20T01:01:49;16.20;1.00
11944;DHT22;6031;50.220;10.122;2023-07-20T01:04:15;16.10;1.00
11944;DHT22;6031;50.220;10.122;2023-07-20T01:09:24;16.20;1.00
11944;DHT22;6031;50.220;10.122;2023-07-20T01:14:23;16.30;1.00
11944;DHT22;6031;50.220;10.122;2023-07-20T01:16:50;16.30;1.00
11944;DHT22;6031;50.220;10.122;2023-07-20T01:19:17;16.20;1.00
11944;DHT22;6031;50.220;10.122;2023-07-20T01:21:56;16.20;1.00
11944;DHT22;6031;50.220;10.122;2023-07-20T01:27:29;16.20;1.00
11944;DHT22;6031;50.220;10.122;2023-07-20T01:30:25;16.30;1.00
11944;DHT22;6031;50.220;10.122;2023-07-20T01:32:57;16.20;1.00
11944;DHT22;6031;50.220;10.122;2023-07-20T01:35:28;16.20;1.00
11944;DHT22;6031;50.220;10.122;2023-07-20T01:37:54;16.20;1.00
11944;DHT22;6031;50.220;10.122;2023-07-20T01:40:21;16.10;1.00
11944;DHT22;6031;50.220;10.122;2023-07-20T01:42:47;16.00;1.00
11944;DHT22;6031;50.220;10.122;2023-07-20T01:45:13;15.90;1.00
11944;DHT22;6031;50.220;10.122;2023-07-20T01:47:39;15.70;1.00
11944;DHT22;6031;50.220;10.122;2023-07-20T01:50:06;15.70;1.00
11944;DHT22;6031;50.220;10.122;2023-07-20T01:52:31;15.70;1.00
11944;DHT22;6031;50.220;10.122;2023-07-20T01:54:57;15.60;1.00
11944;DHT22;6031;50.220;10.122;2023-07-20T01:57:23;15.60;1.00
11944;DHT22;6031;50.220;10.122;2023-07-20T01:59:48;15.50;1.00
11944;DHT22;6031;50.220;10.122;2023-07-20T02:02:14;15.50;1.00
11944;DHT22;6031;50.220;10.122;2023-07-20T02:04:39;15.50;1.00
11944;DHT22;6031;50.220;10.122;2023-07-20T02:07:05;15.40;1.00
11944;DHT22;6031;50.220;10.122;2023-07-20T02:09:30;15.40;1.00
11944;DHT22;6031;50.220;10.122;2023-07-20T02:11:56;15.30;1.00
11944;DHT22;6031;50.220;10.122;2023-07-20T02:14:21;15.20;1.00
11944;DHT22;6031;50.220;10.122;2023-07-20T02:16:48;15.20;1.00
11944;DHT22;6031;50.220;10.122;2023-07-20T02:19:17;15.20;1.00
11944;DHT22;6031;50.220;10.122;2023-07-20T02:21:42;15.10;1.00
11944;DHT22;6031;50.220;10.122;2023-07-20T02:24:08;15.30;1.00
11944;DHT22;6031;50.220;10.122;2023-07-20T02:26:33;15.10;1.00
11944;DHT22;6031;50.220;10.122;2023-07-20T02:28:59;15.10;1.00
11944;DHT22;6031;50.220;10.122;2023-07-20T02:31:24;15.00;1.00
11944;DHT22;6031;50.220;10.122;2023-07-20T02:33:50;14.90;1.00
11944;DHT22;6031;50.220;10.122;2023-07-20T02:36:15;14.80;1.00
11944;DHT22;6031;50.220;10.122;2023-07-20T02:38:42;14.70;1.00
11944;DHT22;6031;50.220;10.122;2023-07-20T02:41:07;14.70;1.00
11944;DHT22;6031;50.220;10.122;2023-07-20T02:43:33;14.70;1.00
11944;DHT22;6031;50.220;10.122;2023-07-20T02:45:58;14.60;1.00
11944;DHT22;6031;50.220;10.122;2023-07-20T02:48:24;14.50;1.00
11944;DHT22;6031;50.220;10.122;2023-07-20T02:50:49;14.50;12.00
11944;DHT22;6031;50.220;10.122;2023-07-20T02:53:15;14.50;1.00
11944;DHT22;6031;50.220;10.122;2023-07-20T02:55:40;14.50;2.40
11944;DHT22;6031;50.220;10.122;2023-07-20T02:58:06;14.40;16.60
11944;DHT22;6031;50.220;10.122;2023-07-20T03:00:32;14.40;14.50
11944;DHT22;6031;50.220;10.122;2023-07-20T03:02:58;14.30;5.30
11944;DHT22;6031;50.220;10.122;2023-07-20T03:05:23;14.30;13.40
11944;DHT22;6031;50.220;10.122;2023-07-20T03:07:53;14.30;15.50
11944;DHT22;6031;50.220;10.122;2023-07-20T03:10:18;14.30;27.00
11944;DHT22;6031;50.220;10.122;2023-07-20T03:12:44;14.30;29.70
11944;DHT22;6031;50.220;10.122;2023-07-20T03:15:10;14.30;33.60
11944;DHT22;6031;50.220;10.122;2023-07-20T03:17:35;14.30;2.20
11944;DHT22;6031;50.220;10.122;2023-07-20T03:20:01;14.30;1.00
11944;DHT22;6031;50.220;10.122;2023-07-20T03:22:26;14.10;1.00
11944;DHT22;6031;50.220;10.122;2023-07-20T03:24:52;14.10;1.00
11944;DHT22;6031;50.220;10.122;2023-07-20T03:27:18;14.00;1.00
11944;DHT22;6031;50.220;10.122;2023-07-20T03:29:44;14.00;1.00
11944;DHT22;6031;50.220;10.122;2023-07-20T03:32:10;14.00;46.90
11944;DHT22;6031;50.220;10.122;2023-07-20T03:34:35;13.90;73.00
11944;DHT22;6031;50.220;10.122;2023-07-20T03:37:01;14.00;47.90
11944;DHT22;6031;50.220;10.122;2023-07-20T03:39:27;14.00;39.00
11944;DHT22;6031;50.220;10.122;2023-07-20T03:41:52;14.00;26.20
11944;DHT22;6031;50.220;10.122;2023-07-20T03:44:18;14.00;6.00
11944;DHT22;6031;50.220;10.122;2023-07-20T03:46:43;14.00;1.00
11944;DHT22;6031;50.220;10.122;2023-07-20T03:49:09;14.10;1.00
11944;DHT22;6031;50.220;10.122;2023-07-20T03:51:35;14.10;1.00
11944;DHT22;6031;50.220;10.122;2023-07-20T03:54:01;14.00;1.00
11944;DHT22;6031;50.220;10.122;2023-07-20T03:56:27;14.00;1.00
11944;DHT22;6031;50.220;10.122;2023-07-20T03:58:53;14.00;1.00
11944;DHT22;6031;50.220;10.122;2023-07-20T04:01:18;14.00;1.00
11944;DHT22;6031;50.220;10.122;2023-07-20T04:03:44;14.00;1.00
11944;DHT22;6031;50.220;10.122;2023-07-20T04:06:10;14.00;1.00
11944;DHT22;6031;50.220;10.122;2023-07-20T04:08:36;14.00;1.00
11944;DHT22;6031;50.220;10.122;2023-07-20T04:11:02;14.00;1.00
11944;DHT22;6031;50.220;10.122;2023-07-20T04:13:28;14.10;1.00
11944;DHT22;6031;50.220;10.122;2023-07-20T04:15:54;14.20;1.00
11944;DHT22;6031;50.220;10.122;2023-07-20T04:18:20;14.20;1.00
11944;DHT22;6031;50.220;10.122;2023-07-20T04:20:45;14.30;1.00
11944;DHT22;6031;50.220;10.122;2023-07-20T04:23:11;14.20;1.00
11944;DHT22;6031;50.220;10.122;2023-07-20T04:25:39;14.20;1.00
11944;DHT22;6031;50.220;10.122;2023-07-20T04:28:08;14.30;1.00
11944;DHT22;6031;50.220;10.122;2023-07-20T04:30:38;14.30;1.00
11944;DHT22;6031;50.220;10.122;2023-07-20T04:33:04;14.40;1.00
11944;DHT22;6031;50.220;10.122;2023-07-20T04:35:50;14.50;99.90
11944;DHT22;6031;50.220;10.122;2023-07-20T04:38:16;14.60;99.90
11944;DHT22;6031;50.220;10.122;2023-07-20T04:40:47;14.60;99.90
11944;DHT22;6031;50.220;10.122;2023-07-20T04:43:17;14.60;1.00
11944;DHT22;6031;50.220;10.122;2023-07-20T04:45:43;14.70;99.90
11944;DHT22;6031;50.220;10.122;2023-07-20T04:48:13;14.80;99.90
11944;DHT22;6031;50.220;10.122;2023-07-20T04:50:40;14.90;99.90
11944;DHT22;6031;50.220;10.122;2023-07-20T04:53:08;15.00;99.90
11944;DHT22;6031;50.220;10.122;2023-07-20T04:55:35;15.10;1.00
11944;DHT22;6031;50.220;10.122;2023-07-20T04:58:02;15.20;1.00
11944;DHT22;6031;50.220;10.122;2023-07-20T05:00:29;15.40;1.00
11944;DHT22;6031;50.220;10.122;2023-07-20T05:02:55;15.50;99.90
11944;DHT22;6031;50.220;10.122;2023-07-20T05:05:21;15.60;86.50
11944;DHT22;6031;50.220;10.122;2023-07-20T05:07:47;15.80;95.30
11944;DHT22;6031;50.220;10.122;2023-07-20T05:10:12;16.00;1.00
11944;DHT22;6031;50.220;10.122;2023-07-20T05:12:37;16.30;99.90
11944;DHT22;6031;50.220;10.122;2023-07-20T05:15:04;16.50;99.90
11944;DHT22;6031;50.220;10.122;2023-07-20T05:17:29;16.60;99.90
11944;DHT22;6031;50.220;10.122;2023-07-20T05:19:55;16.70;1.00
11944;DHT22;6031;50.220;10.122;2023-07-20T05:22:20;16.80;99.90
11944;DHT22;6031;50.220;10.122;2023-07-20T05:24:46;16.70;1.00
11944;DHT22;6031;50.220;10.122;2023-07-20T05:27:12;16.50;85.10
11944;DHT22;6031;50.220;10.122;2023-07-20T05:29:37;16.50;99.90
11944;DHT22;6031;50.220;10.122;2023-07-20T05:32:03;16.50;99.90
11944;DHT22;6031;50.220;10.122;2023-07-20T05:34:29;16.50;99.90
11944;DHT22;6031;50.220;10.122;2023-07-20T05:36:55;16.50;1.00
11944;DHT22;6031;50.220;10.122;2023-07-20T05:39:20;16.70;99.90
11944;DHT22;6031;50.220;10.122;2023-07-20T05:41:46;16.70;1.00
11944;DHT22;6031;50.220;10.122;2023-07-20T05:44:12;16.80;1.00
11944;DHT22;6031;50.220;10.122;2023-07-20T05:46:37;16.80;99.90
11944;DHT22;6031;50.220;10.122;2023-07-20T05:49:03;17.10;99.90
11944;DHT22;6031;50.220;10.122;2023-07-20T05:51:28;17.20;99.90
11944;DHT22;6031;50.220;10.122;2023-07-20T05:53:54;17.30;1.00
11944;DHT22;6031;50.220;10.122;2023-07-20T05:56:19;17.50;1.00
11944;DHT22;6031;50.220;10.122;2023-07-20T05:58:45;17.80;99.90
11944;DHT22;6031;50.220;10.122;2023-07-20T06:01:11;18.20;1.00
11944;DHT22;6031;50.220;10.122;2023-07-20T06:03:36;18.50;99.90
11944;DHT22;6031;50.220;10.122;2023-07-20T06:06:03;18.80;73.70
11944;DHT22;6031;50.220;10.122;2023-07-20T06:08:30;19.20;1.00
11944;DHT22;6031;50.220;10.122;2023-07-20T06:10:56;20.20;99.90
11944;DHT22;6031;50.220;10.122;2023-07-20T06:13:21;21.30;99.90
11944;DHT22;6031;50.220;10.122;2023-07-20T06:15:47;22.20;1.00
11944;DHT22;6031;50.220;10.122;2023-07-20T06:18:13;22.80;1.00
11944;DHT22;6031;50.220;10.122;2023-07-20T06:20:39;23.60;1.00
11944;DHT22;6031;50.220;10.122;2023-07-20T06:23:04;24.30;1.00
11944;DHT22;6031;50.220;10.122;2023-07-20T06:25:30;24.90;1.00
11944;DHT22;6031;50.220;10.122;2023-07-20T06:27:56;25.20;1.00
11944;DHT22;6031;50.220;10.122;2023-07-20T06:30:22;25.10;1.00
11944;DHT22;6031;50.220;10.122;2023-07-20T06:32:48;25.80;1.00
11944;DHT22;6031;50.220;10.122;2023-07-20T06:35:14;26.00;1.00
11944;DHT22;6031;50.220;10.122;2023-07-20T06:37:39;26.60;1.00
11944;DHT22;6031;50.220;10.122;2023-07-20T06:40:05;26.50;1.00
11944;DHT22;6031;50.220;10.122;2023-07-20T06:42:31;26.20;1.00
11944;DHT22;6031;50.220;10.122;2023-07-20T06:44:57;26.70;1.00
11944;DHT22;6031;50.220;10.122;2023-07-20T06:47:23;26.90;1.00
11944;DHT22;6031;50.220;10.122;2023-07-20T06:49:49;27.50;1.00
11944;DHT22;6031;50.220;10.122;2023-07-20T06:52:15;27.90;1.00
11944;DHT22;6031;50.220;10.122;2023-07-20T06:54:40;26.80;1.00
11944;DHT22;6031;50.220;10.122;2023-07-20T06:57:06;26.90;1.00
11944;DHT22;6031;50.220;10.122;2023-07-20T06:59:31;26.00;1.00
11944;DHT22;6031;50.220;10.122;2023-07-20T07:01:58;26.30;1.00
11944;DHT22;6031;50.220;10.122;2023-07-20T07:04:23;26.80;1.00
11944;DHT22;6031;50.220;10.122;2023-07-20T07:06:49;27.00;1.00
11944;DHT22;6031;50.220;10.122;2023-07-20T07:09:14;26.60;1.00
11944;DHT22;6031;50.220;10.122;2023-07-20T07:11:40;25.40;1.00
11944;DHT22;6031;50.220;10.122;2023-07-20T07:14:05;25.90;1.00
11944;DHT22;6031;50.220;10.122;2023-07-20T07:16:31;25.40;1.00
11944;DHT22;6031;50.220;10.122;2023-07-20T07:18:56;26.70;1.00
11944;DHT22;6031;50.220;10.122;2023-07-20T07:21:22;27.50;1.00
11944;DHT22;6031;50.220;10.122;2023-07-20T07:23:47;27.70;99.90
11944;DHT22;6031;50.220;10.122;2023-07-20T07:26:13;27.30;99.90
11944;DHT22;6031;50.220;10.122;2023-07-20T07:28:38;26.50;99.90
11944;DHT22;6031;50.220;10.122;2023-07-20T07:31:05;25.70;1.00
11944;DHT22;6031;50.220;10.122;2023-07-20T07:33:33;24.30;1.00
11944;DHT22;6031;50.220;10.122;2023-07-20T07:36:00;24.60;1.00
11944;DHT22;6031;50.220;10.122;2023-07-20T07:38:25;24.50;1.00
11944;DHT22;6031;50.220;10.122;2023-07-20T07:40:51;24.70;1.00
11944;DHT22;6031;50.220;10.122;2023-07-20T07:43:16;24.50;1.00
11944;DHT22;6031;50.220;10.122;2023-07-20T07:45:42;24.30;1.00
11944;DHT22;6031;50.220;10.122;2023-07-20T07:48:08;25.50;1.00
11944;DHT22;6031;50.220;10.122;2023-07-20T07:50:36;24.70;1.00
11944;DHT22;6031;50.220;10.122;2023-07-20T07:53:02;24.40;1.00
11944;DHT22;6031;50.220;10.122;2023-07-20T07:55:28;24.70;1.00
11944;DHT22;6031;50.220;10.122;2023-07-20T07:57:54;25.20;1.00
11944;DHT22;6031;50.220;10.122;2023-07-20T08:00:19;25.90;1.00
11944;DHT22;6031;50.220;10.122;2023-07-20T08:02:45;26.40;1.00
11944;DHT22;6031;50.220;10.122;2023-07-20T08:05:13;25.20;1.00
11944;DHT22;6031;50.220;10.122;2023-07-20T08:07:39;24.50;1.00
11944;DHT22;6031;50.220;10.122;2023-07-20T08:10:05;24.80;1.00
11944;DHT22;6031;50.220;10.122;2023-07-20T08:12:31;25.60;99.90
11944;DHT22;6031;50.220;10.122;2023-07-20T08:14:57;24.90;1.00
11944;DHT22;6031;50.220;10.122;2023-07-20T08:17:22;26.00;99.90
11944;DHT22;6031;50.220;10.122;2023-07-20T08:19:48;27.70;99.90
11944;DHT22;6031;50.220;10.122;2023-07-20T08:22:13;29.20;99.90
11944;DHT22;6031;50.220;10.122;2023-07-20T08:24:40;30.00;99.90
11944;DHT22;6031;50.220;10.122;2023-07-20T08:27:06;28.10;99.90
11944;DHT22;6031;50.220;10.122;2023-07-20T08:29:32;26.20;99.90
11944;DHT22;6031;50.220;10.122;2023-07-20T08:31:58;24.80;99.90
11944;DHT22;6031;50.220;10.122;2023-07-20T08:34:23;24.10;1.00
11944;DHT22;6031;50.220;10.122;2023-07-20T08:36:49;25.10;1.00
11944;DHT22;6031;50.220;10.122;2023-07-20T08:39:14;26.20;99.90
11944;DHT22;6031;50.220;10.122;2023-07-20T08:41:42;28.10;99.90
11944;DHT22;6031;50.220;10.122;2023-07-20T08:44:08;27.90;99.90
11944;DHT22;6031;50.220;10.122;2023-07-20T08:46:35;29.20;99.90
11944;DHT22;6031;50.220;10.122;2023-07-20T08:49:03;29.60;99.90
11944;DHT22;6031;50.220;10.122;2023-07-20T08:51:30;28.10;99.90
11944;DHT22;6031;50.220;10.122;2023-07-20T08:53:55;26.50;99.90
11944;DHT22;6031;50.220;10.122;2023-07-20T08:56:23;25.60;99.90
11944;DHT22;6031;50.220;10.122;2023-07-20T08:58:51;24.70;99.90
11944;DHT22;6031;50.220;10.122;2023-07-20T09:01:17;24.00;99.90
11944;DHT22;6031;50.220;10.122;2023-07-20T09:03:45;23.90;1.00
11944;DHT22;6031;50.220;10.122;2023-07-20T09:06:10;23.40;1.00
11944;DHT22;6031;50.220;10.122;2023-07-20T09:08:40;23.10;1.00
11944;DHT22;6031;50.220;10.122;2023-07-20T09:11:06;23.10;1.00
11944;DHT22;6031;50.220;10.122;2023-07-20T09:13:34;23.50;1.00
11944;DHT22;6031;50.220;10.122;2023-07-20T09:16:00;23.60;1.00
11944;DHT22;6031;50.220;10.122;2023-07-20T09:18:27;24.00;1.00
11944;DHT22;6031;50.220;10.122;2023-07-20T09:20:57;24.60;1.00
11944;DHT22;6031;50.220;10.122;2023-07-20T09:23:35;25.50;99.90
11944;DHT22;6031;50.220;10.122;2023-07-20T09:26:01;24.20;1.00
11944;DHT22;6031;50.220;10.122;2023-07-20T09:28:42;25.70;1.00
11944;DHT22;6031;50.220;10.122;2023-07-20T09:31:21;27.70;99.90
11944;DHT22;6031;50.220;10.122;2023-07-20T09:33:48;27.00;99.90
11944;DHT22;6031;50.220;10.122;2023-07-20T09:36:14;27.00;99.90
11944;DHT22;6031;50.220;10.122;2023-07-20T09:38:41;26.50;99.90
11944;DHT22;6031;50.220;10.122;2023-07-20T09:41:07;25.80;99.90
11944;DHT22;6031;50.220;10.122;2023-07-20T09:43:37;25.30;99.90
11944;DHT22;6031;50.220;10.122;2023-07-20T09:46:02;27.00;99.90
11944;DHT22;6031;50.220;10.122;2023-07-20T09:48:29;29.00;99.90
11944;DHT22;6031;50.220;10.122;2023-07-20T09:50:56;28.10;99.90
11944;DHT22;6031;50.220;10.122;2023-07-20T09:53:24;27.50;99.90
11944;DHT22;6031;50.220;10.122;2023-07-20T09:55:50;26.10;99.90
11944;DHT22;6031;50.220;10.122;2023-07-20T09:58:17;25.00;99.90
11944;DHT22;6031;50.220;10.122;2023-07-20T10:00:44;24.60;99.90
11944;DHT22;6031;50.220;10.122;2023-07-20T10:03:16;24.50;99.90
11944;DHT22;6031;50.220;10.122;2023-07-20T10:05:47;24.10;99.90
11944;DHT22;6031;50.220;10.122;2023-07-20T10:08:15;23.80;99.90
11944;DHT22;6031;50.220;10.122;2023-07-20T10:10:42;23.20;99.90
11944;DHT22;6031;50.220;10.122;2023-07-20T10:13:15;23.10;1.00
11944;DHT22;6031;50.220;10.122;2023-07-20T10:15:50;23.20;1.00
11944;DHT22;6031;50.220;10.122;2023-07-20T10:21:06;22.90;1.00
11944;DHT22;6031;50.220;10.122;2023-07-20T10:23:34;23.10;1.00
11944;DHT22;6031;50.220;10.122;2023-07-20T10:26:01;25.60;1.00
11944;DHT22;6031;50.220;10.122;2023-07-20T10:28:27;28.40;99.90
11944;DHT22;6031;50.220;10.122;2023-07-20T10:30:53;30.40;99.90
11944;DHT22;6031;50.220;10.122;2023-07-20T10:33:19;30.00;99.90
11944;DHT22;6031;50.220;10.122;2023-07-20T10:38:17;27.30;99.90
11944;DHT22;6031;50.220;10.122;2023-07-20T10:40:43;26.40;99.90
11944;DHT22;6031;50.220;10.122;2023-07-20T10:43:19;25.20;99.90
11944;DHT22;6031;50.220;10.122;2023-07-20T10:45:52;24.30;99.90
11944;DHT22;6031;50.220;10.122;2023-07-20T10:48:23;24.00;99.90
11944;DHT22;6031;50.220;10.122;2023-07-20T10:51:10;25.70;99.90
11944;DHT22;6031;50.220;10.122;2023-07-20T10:53:36;28.30;99.90
11944;DHT22;6031;50.220;10.122;2023-07-20T10:56:14;30.10;99.90
11944;DHT22;6031;50.220;10.122;2023-07-20T10:58:41;31.90;99.90
11944;DHT22;6031;50.220;10.122;2023-07-20T11:01:08;31.60;99.90
11944;DHT22;6031;50.220;10.122;2023-07-20T11:03:36;29.90;99.90
11944;DHT22;6031;50.220;10.122;2023-07-20T11:06:30;28.30;99.90
11944;DHT22;6031;50.220;10.122;2023-07-20T11:09:12;27.00;99.90
11944;DHT22;6031;50.220;10.122;2023-07-20T11:11:47;25.20;99.90
11944;DHT22;6031;50.220;10.122;2023-07-20T11:14:23;25.10;99.90
11944;DHT22;6031;50.220;10.122;2023-07-20T11:16:49;25.20;99.90
11944;DHT22;6031;50.220;10.122;2023-07-20T11:19:25;26.00;99.90
11944;DHT22;6031;50.220;10.122;2023-07-20T11:21:53;26.80;99.90
11944;DHT22;6031;50.220;10.122;2023-07-20T11:24:19;27.80;99.90
11944;DHT22;6031;50.220;10.122;2023-07-20T11:26:52;29.10;99.90
11944;DHT22;6031;50.220;10.122;2023-07-20T11:29:22;29.90;99.90
11944;DHT22;6031;50.220;10.122;2023-07-20T11:31:49;31.00;99.90
11944;DHT22;6031;50.220;10.122;2023-07-20T11:34:16;30.80;99.90
11944;DHT22;6031;50.220;10.122;2023-07-20T11:36:43;29.40;99.90
11944;DHT22;6031;50.220;10.122;2023-07-20T11:39:21;27.80;99.90
11944;DHT22;6031;50.220;10.122;2023-07-20T11:41:51;27.50;99.90
11944;DHT22;6031;50.220;10.122;2023-07-20T11:44:18;27.70;99.90
11944;DHT22;6031;50.220;10.122;2023-07-20T11:46:45;28.10;99.90
11944;DHT22;6031;50.220;10.122;2023-07-20T11:49:11;26.60;99.90
11944;DHT22;6031;50.220;10.122;2023-07-20T11:51:38;26.80;99.90
11944;DHT22;6031;50.220;10.122;2023-07-20T11:54:06;27.30;99.90
11944;DHT22;6031;50.220;10.122;2023-07-20T11:56:32;27.10;99.90
11944;DHT22;6031;50.220;10.122;2023-07-20T11:58:58;26.60;99.90
11944;DHT22;6031;50.220;10.122;2023-07-20T12:01:26;26.20;99.90
11944;DHT22;6031;50.220;10.122;2023-07-20T12:03:55;25.70;99.90
11944;DHT22;6031;50.220;10.122;2023-07-20T12:06:24;26.60;99.90
11944;DHT22;6031;50.220;10.122;2023-07-20T12:08:53;27.50;99.90
11944;DHT22;6031;50.220;10.122;2023-07-20T12:11:37;29.50;99.90
11944;DHT22;6031;50.220;10.122;2023-07-20T12:14:09;31.40;99.90
11944;DHT22;6031;50.220;10.122;2023-07-20T12:16:36;30.80;99.90
11944;DHT22;6031;50.220;10.122;2023-07-20T12:19:02;29.60;99.90
11944;DHT22;6031;50.220;10.122;2023-07-20T12:21:29;28.90;99.90
11944;DHT22;6031;50.220;10.122;2023-07-20T12:23:57;28.30;99.90
11944;DHT22;6031;50.220;10.122;2023-07-20T12:26:24;27.90;99.90
11944;DHT22;6031;50.220;10.122;2023-07-20T12:28:50;27.60;99.90
11944;DHT22;6031;50.220;10.122;2023-07-20T12:31:16;29.00;99.90
11944;DHT22;6031;50.220;10.122;2023-07-20T12:33:42;29.30;99.90
11944;DHT22;6031;50.220;10.122;2023-07-20T12:36:09;29.10;99.90
11944;DHT22;6031;50.220;10.122;2023-07-20T12:38:35;28.60;99.90
11944;DHT22;6031;50.220;10.122;2023-07-20T12:41:01;27.90;99.90
11944;DHT22;6031;50.220;10.122;2023-07-20T12:43:27;28.50;99.90
11944;DHT22;6031;50.220;10.122;2023-07-20T12:45:52;28.90;99.90
11944;DHT22;6031;50.220;10.122;2023-07-20T12:48:18;29.90;99.90
11944;DHT22;6031;50.220;10.122;2023-07-20T12:50:44;30.80;99.90
11944;DHT22;6031;50.220;10.122;2023-07-20T12:53:09;32.30;99.90
11944;DHT22;6031;50.220;10.122;2023-07-20T12:55:35;32.80;99.90
11944;DHT22;6031;50.220;10.122;2023-07-20T12:58:00;33.10;99.90
11944;DHT22;6031;50.220;10.122;2023-07-20T13:00:26;32.00;99.90
11944;DHT22;6031;50.220;10.122;2023-07-20T13:02:51;31.00;99.90
11944;DHT22;6031;50.220;10.122;2023-07-20T13:05:17;30.80;99.90
11944;DHT22;6031;50.220;10.122;2023-07-20T13:07:43;30.90;99.90
11944;DHT22;6031;50.220;10.122;2023-07-20T13:10:10;31.20;99.90
11944;DHT22;6031;50.220;10.122;2023-07-20T13:12:36;31.50;99.90
11944;DHT22;6031;50.220;10.122;2023-07-20T13:15:04;31.50;99.90
11944;DHT22;6031;50.220;10.122;2023-07-20T13:17:31;31.70;99.90
11944;DHT22;6031;50.220;10.122;2023-07-20T13:19:57;31.40;99.90
11944;DHT22;6031;50.220;10.122;2023-07-20T13:22:23;31.30;99.90
11944;DHT22;6031;50.220;10.122;2023-07-20T13:24:48;30.80;99.90
11944;DHT22;6031;50.220;10.122;2023-07-20T13:27:19;30.80;99.90
11944;DHT22;6031;50.220;10.122;2023-07-20T13:29:45;30.90;99.90
11944;DHT22;6031;50.220;10.122;2023-07-20T13:32:13;30.60;99.90
11944;DHT22;6031;50.220;10.122;2023-07-20T13:34:39;30.60;99.90
11944;DHT22;6031;50.220;10.122;2023-07-20T13:37:04;30.90;99.90
11944;DHT22;6031;50.220;10.122;2023-07-20T13:39:31;31.50;99.90
11944;DHT22;6031;50.220;10.122;2023-07-20T13:41:56;31.60;99.90
11944;DHT22;6031;50.220;10.122;2023-07-20T13:44:22;32.10;99.90
11944;DHT22;6031;50.220;10.122;2023-07-20T13:46:48;31.70;99.90
11944;DHT22;6031;50.220;10.122;2023-07-20T13:49:14;31.50;99.90
11944;DHT22;6031;50.220;10.122;2023-07-20T13:51:41;31.10;99.90
11944;DHT22;6031;50.220;10.122;2023-07-20T13:54:06;29.60;99.90
11944;DHT22;6031;50.220;10.122;2023-07-20T13:56:32;28.20;99.90
11944;DHT22;6031;50.220;10.122;2023-07-20T13:58:58;27.40;99.90
11944;DHT22;6031;50.220;10.122;2023-07-20T14:01:23;27.20;99.90
11944;DHT22;6031;50.220;10.122;2023-07-20T14:03:50;26.50;99.90
11944;DHT22;6031;50.220;10.122;2023-07-20T14:06:16;26.50;99.90
11944;DHT22;6031;50.220;10.122;2023-07-20T14:08:42;26.50;99.90
11944;DHT22;6031;50.220;10.122;2023-07-20T14:11:14;26.40;99.90
11944;DHT22;6031;50.220;10.122;2023-07-20T14:13:40;26.30;99.90
11944;DHT22;6031;50.220;10.122;2023-07-20T14:16:05;26.20;99.90
11944;DHT22;6031;50.220;10.122;2023-07-20T14:18:31;26.00;99.90
11944;DHT22;6031;50.220;10.122;2023-07-20T14:20:57;25.70;99.90
11944;DHT22;6031;50.220;10.122;2023-07-20T14:23:23;25.60;99.90
11944;DHT22;6031;50.220;10.122;2023-07-20T14:25:49;26.00;99.90
11944;DHT22;6031;50.220;10.122;2023-07-20T14:28:14;26.10;99.90
11944;DHT22;6031;50.220;10.122;2023-07-20T14:30:40;25.90;99.90
11944;DHT22;6031;50.220;10.122;2023-07-20T14:33:06;25.80;99.90
11944;DHT22;6031;50.220;10.122;2023-07-20T14:35:31;25.70;99.90
11944;DHT22;6031;50.220;10.122;2023-07-20T14:37:57;25.40;99.90
11944;DHT22;6031;50.220;10.122;2023-07-20T14:40:23;25.30;99.90
11944;DHT22;6031;50.220;10.122;2023-07-20T14:42:48;25.10;99.90
11944;DHT22;6031;50.220;10.122;2023-07-20T14:45:14;25.00;99.90
11944;DHT22;6031;50.220;10.122;2023-07-20T14:47:39;24.80;99.90
11944;DHT22;6031;50.220;10.122;2023-07-20T14:50:06;24.70;99.90
11944;DHT22;6031;50.220;10.122;2023-07-20T14:52:32;24.60;99.90
11944;DHT22;6031;50.220;10.122;2023-07-20T14:54:57;24.70;99.90
11944;DHT22;6031;50.220;10.122;2023-07-20T14:57:23;24.60;99.90
11944;DHT22;6031;50.220;10.122;2023-07-20T14:59:51;24.90;99.90
11944;DHT22;6031;50.220;10.122;2023-07-20T15:02:18;25.10;99.90
11944;DHT22;6031;50.220;10.122;2023-07-20T15:04:50;25.40;99.90
11944;DHT22;6031;50.220;10.122;2023-07-20T15:07:20;25.50;99.90
11944;DHT22;6031;50.220;10.122;2023-07-20T15:09:49;25.60;99.90
11944;DHT22;6031;50.220;10.122;2023-07-20T15:12:15;25.90;99.90
11944;DHT22;6031;50.220;10.122;2023-07-20T15:14:42;26.00;99.90
11944;DHT22;6031;50.220;10.122;2023-07-20T15:17:08;25.90;99.90
11944;DHT22;6031;50.220;10.122;2023-07-20T15:19:34;26.00;99.90
11944;DHT22;6031;50.220;10.122;2023-07-20T15:22:04;26.30;99.90
11944;DHT22;6031;50.220;10.122;2023-07-20T15:24:30;26.80;99.90
11944;DHT22;6031;50.220;10.122;2023-07-20T15:26:55;27.10;99.90
11944;DHT22;6031;50.220;10.122;2023-07-20T15:29:23;27.30;99.90
11944;DHT22;6031;50.220;10.122;2023-07-20T15:31:48;27.40;99.90
11944;DHT22;6031;50.220;10.122;2023-07-20T15:34:14;27.40;99.90
11944;DHT22;6031;50.220;10.122;2023-07-20T15:36:40;27.80;99.90
11944;DHT22;6031;50.220;10.122;2023-07-20T15:39:06;27.80;99.90
11944;DHT22;6031;50.220;10.122;2023-07-20T15:41:31;27.30;99.90
11944;DHT22;6031;50.220;10.122;2023-07-20T15:43:57;27.20;99.90
11944;DHT22;6031;50.220;10.122;2023-07-20T15:48:48;27.50;99.90
11944;DHT22;6031;50.220;10.122;2023-07-20T15:51:14;27.00;99.90